createdAt,value
2019-05-26T00:00:10.047Z,13.60
2019-05-26T00:02:38.577Z,13.10
2019-05-26T00:05:07.554Z,13.67
2019-05-26T00:07:35.965Z,13.10
2019-05-26T00:10:06.217Z,13.63
2019-05-26T00:12:34.782Z,14.50
2019-05-26T00:15:04.460Z,15.20
2019-05-26T00:17:32.878Z,17.07
2019-05-26T00:20:01.334Z,14.63
2019-05-26T00:22:29.761Z,15.10
2019-05-26T00:24:58.204Z,15.83
2019-05-26T00:27:26.628Z,16.87
2019-05-26T00:29:55.072Z,17.90
2019-05-26T00:32:23.541Z,19.33
2019-05-26T00:34:51.978Z,19.70
2019-05-26T00:37:20.398Z,20.63
2019-05-26T00:39:48.861Z,19.17
2019-05-26T00:42:17.326Z,20.47
2019-05-26T00:44:45.778Z,20.07
2019-05-26T00:47:14.205Z,20.97
2019-05-26T00:49:42.788Z,20.47
2019-05-26T00:52:11.332Z,21.90
2019-05-26T00:54:39.932Z,21.43
2019-05-26T00:57:08.377Z,19.07
2019-05-26T00:59:36.889Z,22.27
2019-05-26T01:02:05.448Z,19.20
2019-05-26T01:04:33.959Z,19.10
2019-05-26T01:07:02.487Z,20.30
2019-05-26T01:09:31.150Z,20.00
2019-05-26T01:11:59.663Z,22.20
2019-05-26T01:14:28.079Z,19.50
2019-05-26T01:16:56.663Z,31.70
2019-05-26T01:19:25.097Z,20.83
2019-05-26T01:21:53.546Z,19.50
2019-05-26T01:24:21.994Z,20.97
2019-05-26T01:26:50.446Z,19.97
2019-05-26T01:29:18.865Z,20.50
2019-05-26T01:31:47.310Z,19.30
2019-05-26T01:34:15.787Z,21.17
2019-05-26T01:36:44.577Z,21.33
2019-05-26T01:39:13.049Z,20.40
2019-05-26T01:41:41.517Z,21.47
2019-05-26T01:44:09.956Z,20.60
2019-05-26T01:46:38.405Z,20.70
2019-05-26T01:49:06.817Z,21.27
2019-05-26T01:51:35.325Z,20.77
2019-05-26T01:54:03.897Z,20.83
2019-05-26T01:56:32.356Z,19.33
2019-05-26T01:59:00.780Z,19.87
2019-05-26T02:01:29.290Z,20.40
2019-05-26T02:04:00.172Z,20.47
2019-05-26T02:06:28.733Z,21.37
2019-05-26T02:08:57.248Z,19.33
2019-05-26T02:11:25.652Z,19.70
2019-05-26T02:13:54.102Z,19.20
2019-05-26T02:16:22.513Z,20.83
2019-05-26T02:18:51.059Z,20.37
2019-05-26T02:21:19.514Z,19.30
2019-05-26T02:23:48.020Z,21.50
2019-05-26T02:26:16.441Z,21.47
2019-05-26T02:28:44.878Z,18.20
2019-05-26T02:31:13.796Z,19.93
2019-05-26T02:33:42.241Z,21.00
2019-05-26T02:36:12.514Z,18.37
2019-05-26T02:39:00.144Z,19.77
2019-05-26T02:41:11.093Z,19.20
2019-05-26T02:43:39.881Z,20.30
2019-05-26T02:46:08.330Z,19.50
2019-05-26T02:48:36.856Z,18.90
2019-05-26T02:51:05.464Z,19.67
2019-05-26T02:53:33.909Z,19.53
2019-05-26T02:56:02.659Z,18.87
2019-05-26T02:58:31.205Z,19.23
2019-05-26T03:01:01.336Z,17.37
2019-05-26T03:03:31.470Z,18.30
2019-05-26T03:06:00.745Z,18.43
2019-05-26T03:08:30.216Z,19.80
2019-05-26T03:11:00.306Z,17.37
2019-05-26T03:13:31.711Z,19.73
2019-05-26T03:16:07.383Z,18.00
2019-05-26T03:18:38.524Z,17.83
2019-05-26T03:21:07.243Z,18.67
2019-05-26T03:23:35.902Z,20.20
2019-05-26T03:26:04.522Z,18.53
2019-05-26T03:28:32.930Z,19.27
2019-05-26T03:31:01.440Z,18.90
2019-05-26T03:33:29.869Z,19.73
2019-05-26T03:35:58.409Z,18.63
2019-05-26T03:38:27.163Z,18.40
2019-05-26T03:40:55.598Z,16.83
2019-05-26T03:43:24.015Z,18.57
2019-05-26T03:46:04.776Z,17.77
2019-05-26T03:48:33.315Z,19.30
2019-05-26T03:51:01.758Z,18.10
2019-05-26T03:53:30.197Z,18.07
2019-05-26T03:55:58.652Z,18.70
2019-05-26T03:58:27.160Z,18.50
2019-05-26T04:00:55.680Z,20.77
2019-05-26T04:03:24.113Z,18.47
2019-05-26T04:05:52.546Z,18.97
2019-05-26T04:08:21.046Z,18.17
2019-05-26T04:10:49.452Z,19.00
2019-05-26T04:13:17.901Z,17.93
2019-05-26T04:15:46.422Z,19.27
2019-05-26T04:18:14.860Z,17.80
2019-05-26T04:20:45.902Z,19.00
2019-05-26T04:23:16.558Z,17.87
2019-05-26T04:25:44.983Z,17.70
2019-05-26T04:28:13.417Z,17.97
2019-05-26T04:30:41.990Z,18.33
2019-05-26T04:33:10.424Z,18.30
2019-05-26T04:35:38.861Z,19.00
2019-05-26T04:38:07.297Z,17.90
2019-05-26T04:40:36.454Z,16.40
2019-05-26T04:43:04.948Z,17.77
2019-05-26T04:45:33.373Z,17.10
2019-05-26T04:48:01.884Z,16.30
2019-05-26T04:50:30.286Z,18.40
2019-05-26T04:53:06.071Z,17.70
2019-05-26T04:55:28.893Z,15.97
2019-05-26T04:57:57.335Z,16.90
2019-05-26T05:00:25.814Z,17.17
2019-05-26T05:02:54.256Z,17.80
2019-05-26T05:05:22.813Z,16.90
2019-05-26T05:07:51.265Z,16.33
2019-05-26T05:10:19.755Z,16.40
2019-05-26T05:12:48.517Z,16.63
2019-05-26T05:15:17.199Z,15.40
2019-05-26T05:17:45.625Z,15.87
2019-05-26T05:20:14.407Z,16.07
2019-05-26T05:22:43.011Z,16.77
2019-05-26T05:25:14.947Z,15.60
2019-05-26T05:27:42.556Z,16.43
2019-05-26T05:30:11.550Z,15.70
2019-05-26T05:32:39.973Z,17.30
2019-05-26T05:35:09.150Z,16.27
2019-05-26T05:37:37.651Z,17.50
2019-05-26T05:40:09.630Z,17.07
2019-05-26T05:42:38.074Z,17.17
2019-05-26T05:45:09.361Z,16.50
2019-05-26T05:47:37.952Z,16.97
2019-05-26T05:50:10.908Z,15.20
2019-05-26T05:52:39.324Z,16.50
2019-05-26T05:55:09.015Z,14.83
2019-05-26T05:57:37.472Z,14.77
2019-05-26T06:00:07.725Z,14.53
2019-05-26T06:02:36.220Z,14.07
2019-05-26T06:05:06.476Z,15.23
2019-05-26T06:07:34.965Z,13.30
2019-05-26T06:10:08.061Z,12.30
2019-05-26T06:12:36.814Z,14.20
2019-05-26T06:15:11.793Z,13.13
2019-05-26T06:17:40.958Z,12.60
2019-05-26T06:20:09.925Z,11.93
2019-05-26T06:22:38.356Z,12.27
2019-05-26T06:25:07.676Z,11.63
2019-05-26T06:27:36.095Z,11.53
2019-05-26T06:30:07.505Z,11.00
2019-05-26T06:32:35.943Z,10.93
2019-05-26T06:35:05.102Z,11.47
2019-05-26T06:37:33.528Z,11.47
2019-05-26T06:40:01.960Z,12.03
2019-05-26T06:42:30.418Z,11.30
2019-05-26T06:44:58.891Z,10.57
2019-05-26T06:47:27.354Z,11.63
2019-05-26T06:49:55.770Z,12.10
2019-05-26T06:52:24.211Z,12.70
2019-05-26T06:54:52.630Z,12.27
2019-05-26T06:57:21.089Z,12.37
2019-05-26T06:59:49.504Z,11.30
2019-05-26T07:02:18.035Z,11.90
2019-05-26T07:04:46.477Z,10.90
2019-05-26T07:07:14.999Z,10.57
2019-05-26T07:09:43.431Z,11.50
2019-05-26T07:12:12.032Z,10.87
2019-05-26T07:14:40.444Z,11.60
2019-05-26T07:17:08.904Z,11.00
2019-05-26T07:19:37.332Z,11.40
2019-05-26T07:22:06.047Z,12.30
2019-05-26T07:24:34.501Z,11.60
2019-05-26T07:27:03.082Z,12.57
2019-05-26T07:29:31.508Z,11.67
2019-05-26T07:31:59.949Z,12.03
2019-05-26T07:34:28.377Z,11.40
2019-05-26T07:36:56.832Z,11.03
2019-05-26T07:39:25.276Z,11.87
2019-05-26T07:42:09.314Z,11.53
2019-05-26T07:44:24.675Z,10.90
2019-05-26T07:46:53.214Z,9.53
2019-05-26T07:49:21.646Z,10.00
2019-05-26T07:51:50.077Z,13.43
2019-05-26T07:54:25.686Z,10.70
2019-05-26T07:56:49.903Z,11.67
2019-05-26T07:59:18.356Z,11.63
2019-05-26T08:01:46.873Z,10.37
2019-05-26T08:04:15.475Z,11.43
2019-05-26T08:06:44.082Z,10.70
2019-05-26T08:09:12.634Z,9.67
2019-05-26T08:11:41.057Z,10.60
2019-05-26T08:14:09.515Z,10.33
2019-05-26T08:16:38.009Z,10.30
2019-05-26T08:19:07.990Z,9.33
2019-05-26T08:21:36.436Z,11.07
2019-05-26T08:24:05.269Z,9.90
2019-05-26T08:26:33.898Z,9.13
2019-05-26T08:29:02.338Z,9.13
2019-05-26T08:31:30.915Z,10.27
2019-05-26T08:33:59.365Z,9.30
2019-05-26T08:36:27.861Z,9.00
2019-05-26T08:38:56.440Z,10.40
2019-05-26T08:41:25.089Z,9.20
2019-05-26T08:43:53.808Z,10.57
2019-05-26T08:46:22.255Z,10.27
2019-05-26T08:48:50.830Z,9.17
2019-05-26T08:51:19.385Z,10.73
2019-05-26T08:53:47.792Z,9.70
2019-05-26T08:56:16.255Z,9.87
2019-05-26T08:58:44.810Z,10.70
2019-05-26T09:01:13.276Z,9.10
2019-05-26T09:03:41.714Z,10.27
2019-05-26T09:06:10.157Z,10.63
2019-05-26T09:08:38.730Z,10.47
2019-05-26T09:11:07.172Z,9.87
2019-05-26T09:13:35.668Z,10.53
2019-05-26T09:16:04.153Z,9.90
2019-05-26T09:18:32.730Z,9.93
2019-05-26T09:21:01.278Z,10.97
2019-05-26T09:23:29.745Z,10.77
2019-05-26T09:25:58.262Z,10.27
2019-05-26T09:28:26.677Z,9.47
2019-05-26T09:30:55.125Z,9.67
2019-05-26T09:33:23.638Z,9.67
2019-05-26T09:35:52.050Z,11.20
2019-05-26T09:38:20.492Z,10.73
2019-05-26T09:40:48.925Z,11.30
2019-05-26T09:43:17.396Z,10.20
2019-05-26T09:45:45.853Z,11.10
2019-05-26T09:48:14.401Z,10.27
2019-05-26T09:50:42.917Z,9.30
2019-05-26T09:53:11.640Z,9.77
2019-05-26T09:55:40.165Z,10.83
2019-05-26T09:58:08.632Z,9.93
2019-05-26T10:00:37.065Z,10.00
2019-05-26T10:03:05.640Z,12.40
2019-05-26T10:05:34.234Z,10.57
2019-05-26T10:08:02.735Z,9.77
2019-05-26T10:10:31.227Z,8.87
2019-05-26T10:12:59.682Z,10.70
2019-05-26T10:15:28.140Z,9.90
2019-05-26T10:17:56.890Z,8.90
2019-05-26T10:20:25.431Z,8.87
2019-05-26T10:22:53.900Z,8.27
2019-05-26T10:25:22.395Z,8.80
2019-05-26T10:27:50.814Z,8.20
2019-05-26T10:30:19.517Z,8.67
2019-05-26T10:32:48.057Z,8.90
2019-05-26T10:35:16.612Z,9.23
2019-05-26T10:37:45.240Z,8.63
2019-05-26T10:40:15.904Z,8.63
2019-05-26T10:42:44.317Z,9.10
2019-05-26T10:45:12.849Z,8.40
2019-05-26T10:47:41.303Z,8.73
2019-05-26T10:50:10.983Z,8.27
2019-05-26T10:52:39.557Z,9.10
2019-05-26T10:55:08.451Z,8.90
2019-05-26T10:57:36.858Z,7.90
2019-05-26T11:00:07.697Z,9.20
2019-05-26T11:02:36.143Z,9.87
2019-05-26T11:05:06.454Z,9.57
2019-05-26T11:07:35.180Z,8.30
2019-05-26T11:10:05.561Z,8.30
2019-05-26T11:12:33.986Z,8.90
2019-05-26T11:15:02.516Z,10.37
2019-05-26T11:17:30.967Z,10.23
2019-05-26T11:19:59.465Z,9.63
2019-05-26T11:22:27.877Z,9.43
2019-05-26T11:24:56.354Z,8.60
2019-05-26T11:27:24.809Z,8.80
2019-05-26T11:29:53.337Z,8.83
2019-05-26T11:32:21.870Z,9.00
2019-05-26T11:35:01.013Z,8.47
2019-05-26T11:37:20.513Z,6.40
2019-05-26T11:39:48.956Z,7.73
2019-05-26T11:42:17.382Z,8.20
2019-05-26T11:44:45.827Z,7.60
2019-05-26T11:47:14.286Z,7.30
2019-05-26T11:49:42.717Z,8.13
2019-05-26T11:52:11.170Z,6.47
2019-05-26T11:54:39.701Z,6.80
2019-05-26T11:57:08.303Z,6.40
2019-05-26T11:59:36.846Z,7.13
2019-05-26T12:02:05.484Z,7.90
2019-05-26T12:04:33.910Z,6.70
2019-05-26T12:07:04.533Z,6.57
2019-05-26T12:09:32.530Z,8.00
2019-05-26T12:12:01.059Z,6.93
2019-05-26T12:14:34.880Z,7.30
2019-05-26T12:17:02.716Z,7.20
2019-05-26T12:19:31.219Z,6.20
2019-05-26T12:21:59.730Z,6.37
2019-05-26T12:24:28.170Z,6.33
2019-05-26T12:26:56.693Z,5.63
2019-05-26T12:29:25.110Z,6.00
2019-05-26T12:31:53.550Z,6.67
2019-05-26T12:34:21.972Z,5.90
2019-05-26T12:36:50.689Z,6.30
2019-05-26T12:39:19.117Z,6.13
2019-05-26T12:41:47.611Z,6.43
2019-05-26T12:44:16.045Z,5.03
2019-05-26T12:46:44.603Z,5.33
2019-05-26T12:49:13.050Z,5.30
2019-05-26T12:51:41.533Z,4.53
2019-05-26T12:54:10.050Z,8.27
2019-05-26T12:56:38.495Z,5.40
2019-05-26T12:59:07.029Z,5.77
2019-05-26T13:01:35.438Z,4.57
2019-05-26T13:04:04.029Z,5.23
2019-05-26T13:06:32.528Z,4.00
2019-05-26T13:09:01.076Z,4.40
2019-05-26T13:11:29.518Z,3.80
2019-05-26T13:13:58.112Z,2.77
2019-05-26T13:16:26.737Z,2.53
2019-05-26T13:18:55.171Z,3.03
2019-05-26T13:21:23.678Z,3.80
2019-05-26T13:23:52.132Z,2.73
2019-05-26T13:26:20.592Z,2.47
2019-05-26T13:28:49.034Z,3.10
2019-05-26T13:31:17.637Z,2.90
2019-05-26T13:33:46.150Z,4.33
2019-05-26T13:36:14.659Z,2.53
2019-05-26T13:38:43.102Z,2.87
2019-05-26T13:41:11.539Z,2.90
2019-05-26T13:43:39.975Z,2.50
2019-05-26T13:46:08.711Z,2.97
2019-05-26T13:48:37.121Z,3.20
2019-05-26T13:51:05.654Z,2.50
2019-05-26T13:53:34.080Z,2.00
2019-05-26T13:56:02.542Z,2.83
2019-05-26T13:58:31.023Z,3.47
2019-05-26T14:00:59.556Z,2.90
2019-05-26T14:03:27.963Z,4.87
2019-05-26T14:05:56.411Z,4.87
2019-05-26T14:08:24.844Z,2.70
2019-05-26T14:10:53.430Z,2.70
2019-05-26T14:13:21.911Z,2.60
2019-05-26T14:16:03.156Z,3.03
2019-05-26T14:18:33.605Z,2.53
2019-05-26T14:21:02.056Z,3.20
2019-05-26T14:23:30.472Z,2.67
2019-05-26T14:25:58.996Z,2.70
2019-05-26T14:28:27.428Z,3.20
2019-05-26T14:30:55.881Z,2.77
2019-05-26T14:33:24.293Z,2.43
2019-05-26T14:35:52.813Z,2.23
2019-05-26T14:38:21.274Z,2.30
2019-05-26T14:40:49.745Z,2.50
2019-05-26T14:43:18.158Z,2.07
2019-05-26T14:45:53.342Z,2.77
2019-05-26T14:48:16.743Z,2.40
2019-05-26T14:50:45.169Z,2.27
2019-05-26T14:53:13.617Z,2.37
2019-05-26T14:55:42.061Z,2.30
2019-05-26T14:58:15.997Z,2.50
2019-05-26T15:00:40.657Z,2.60
2019-05-26T15:03:09.157Z,2.67
2019-05-26T15:05:37.572Z,2.27
2019-05-26T15:08:06.193Z,2.40
2019-05-26T15:10:34.659Z,2.30
2019-05-26T15:13:04.814Z,2.73
2019-05-26T15:15:35.100Z,2.40
2019-05-26T15:18:03.555Z,2.80
2019-05-26T15:20:31.970Z,2.30
2019-05-26T15:23:00.426Z,2.50
2019-05-26T15:25:28.937Z,2.43
2019-05-26T15:27:57.378Z,2.20
2019-05-26T15:30:25.848Z,2.70
2019-05-26T15:32:54.320Z,3.67
2019-05-26T15:35:22.782Z,2.20
2019-05-26T15:37:51.225Z,2.90
2019-05-26T15:40:19.646Z,2.40
2019-05-26T15:42:48.110Z,2.23
2019-05-26T15:45:16.772Z,2.77
2019-05-26T15:47:45.248Z,2.17
2019-05-26T15:50:14.218Z,3.30
2019-05-26T15:52:42.740Z,2.43
2019-05-26T15:55:11.773Z,1.93
2019-05-26T15:57:40.193Z,2.20
2019-05-26T16:00:09.898Z,2.20
2019-05-26T16:02:38.407Z,2.43
2019-05-26T16:05:07.324Z,2.50
2019-05-26T16:07:35.769Z,2.80
2019-05-26T16:10:06.447Z,2.50
2019-05-26T16:12:34.899Z,2.97
2019-05-26T16:15:04.034Z,2.47
2019-05-26T16:17:32.480Z,2.37
2019-05-26T16:20:01.000Z,2.87
2019-05-26T16:22:29.441Z,2.30
2019-05-26T16:24:57.890Z,2.67
2019-05-26T16:27:26.330Z,2.40
2019-05-26T16:29:54.830Z,2.43
2019-05-26T16:32:23.264Z,2.50
2019-05-26T16:34:51.725Z,2.30
2019-05-26T16:37:20.151Z,2.90
2019-05-26T16:39:48.629Z,2.10
2019-05-26T16:42:17.089Z,1.83
2019-05-26T16:44:45.538Z,2.30
2019-05-26T16:47:14.048Z,2.53
2019-05-26T16:49:42.486Z,1.77
2019-05-26T16:52:10.945Z,4.53
2019-05-26T16:54:39.368Z,5.17
2019-05-26T16:57:07.979Z,2.53
2019-05-26T16:59:36.405Z,2.27
2019-05-26T17:02:04.994Z,2.47
2019-05-26T17:04:33.628Z,2.87
2019-05-26T17:07:02.070Z,3.00
2019-05-26T17:09:30.552Z,2.77
2019-05-26T17:11:59.134Z,2.60
2019-05-26T17:14:27.580Z,2.40
2019-05-26T17:17:11.602Z,2.57
2019-05-26T17:19:26.166Z,3.00
2019-05-26T17:21:54.691Z,2.00
2019-05-26T17:24:23.251Z,2.00
2019-05-26T17:26:51.778Z,2.00
2019-05-26T17:29:20.329Z,4.27
2019-05-26T17:31:48.795Z,2.30
2019-05-26T17:34:17.368Z,2.07
2019-05-26T17:36:45.895Z,2.27
2019-05-26T17:39:14.398Z,1.83
2019-05-26T17:41:42.883Z,1.93
2019-05-26T17:44:11.328Z,2.10
2019-05-26T17:46:39.832Z,2.20
2019-05-26T17:49:08.336Z,2.10
2019-05-26T17:51:36.775Z,2.03
2019-05-26T17:54:05.245Z,2.50
2019-05-26T17:56:33.749Z,3.40
2019-05-26T17:59:02.381Z,2.40
2019-05-26T18:01:30.905Z,2.27
2019-05-26T18:03:59.445Z,4.00
2019-05-26T18:06:27.948Z,2.43
2019-05-26T18:08:56.463Z,1.80
2019-05-26T18:11:24.994Z,2.47
2019-05-26T18:13:53.475Z,3.20
2019-05-26T18:16:22.015Z,2.70
2019-05-26T18:18:50.487Z,2.07
2019-05-26T18:21:19.772Z,2.50
2019-05-26T18:23:48.264Z,1.87
2019-05-26T18:26:16.691Z,1.97
2019-05-26T18:28:45.233Z,2.20
2019-05-26T18:31:13.661Z,1.90
2019-05-26T18:33:42.262Z,2.17
2019-05-26T18:36:10.718Z,2.10
2019-05-26T18:38:39.216Z,2.07
2019-05-26T18:41:07.778Z,2.47
2019-05-26T18:43:36.376Z,2.47
2019-05-26T18:46:05.141Z,2.10
2019-05-26T18:48:33.743Z,2.27
2019-05-26T18:51:02.253Z,2.20
2019-05-26T18:53:30.842Z,2.43
2019-05-26T18:56:00.853Z,2.47
2019-05-26T18:58:29.394Z,2.40
2019-05-26T19:00:58.092Z,2.40
2019-05-26T19:03:26.592Z,2.63
2019-05-26T19:05:56.299Z,2.40
2019-05-26T19:08:24.734Z,2.40
2019-05-26T19:10:53.394Z,2.50
2019-05-26T19:13:21.825Z,2.70
2019-05-26T19:15:50.403Z,3.00
2019-05-26T19:18:20.632Z,4.30
2019-05-26T19:20:49.226Z,2.77
2019-05-26T19:23:17.748Z,2.67
2019-05-26T19:25:46.259Z,3.80
2019-05-26T19:28:14.674Z,4.50
2019-05-26T19:30:45.589Z,5.13
2019-05-26T19:33:13.460Z,3.50
2019-05-26T19:35:42.074Z,4.50
2019-05-26T19:38:10.506Z,3.97
2019-05-26T19:40:39.096Z,3.87
2019-05-26T19:43:07.782Z,4.40
2019-05-26T19:45:36.457Z,5.50
2019-05-26T19:48:05.117Z,4.03
2019-05-26T19:50:33.573Z,4.70
2019-05-26T19:53:02.054Z,4.20
2019-05-26T19:55:30.697Z,3.73
2019-05-26T19:57:59.144Z,4.00
2019-05-26T20:00:28.154Z,4.77
2019-05-26T20:02:57.011Z,5.87
2019-05-26T20:05:25.650Z,5.60
2019-05-26T20:07:54.175Z,4.53
2019-05-26T20:10:23.050Z,5.30
2019-05-26T20:12:51.659Z,6.23
2019-05-26T20:15:20.906Z,4.53
2019-05-26T20:17:49.536Z,4.70
2019-05-26T20:20:18.171Z,4.40
2019-05-26T20:22:46.694Z,4.83
2019-05-26T20:25:15.271Z,4.47
2019-05-26T20:27:43.741Z,4.77
2019-05-26T20:30:12.684Z,5.23
2019-05-26T20:32:41.117Z,5.77
2019-05-26T20:35:10.596Z,4.30
2019-05-26T20:37:39.041Z,6.43
2019-05-26T20:40:09.103Z,4.33
2019-05-26T20:42:37.536Z,5.00
2019-05-26T20:45:10.601Z,4.70
2019-05-26T20:47:39.353Z,4.43
2019-05-26T20:50:08.551Z,6.13
2019-05-26T20:52:37.035Z,4.60
2019-05-26T20:55:09.066Z,5.60
2019-05-26T20:57:37.769Z,4.80
2019-05-26T21:00:09.016Z,6.10
2019-05-26T21:02:37.908Z,4.40
2019-05-26T21:05:08.434Z,4.83
2019-05-26T21:07:36.982Z,4.90
2019-05-26T21:10:07.251Z,4.70
2019-05-26T21:12:35.918Z,4.87
2019-05-26T21:15:06.963Z,6.47
2019-05-26T21:17:35.535Z,7.50
2019-05-26T21:20:09.146Z,5.57
2019-05-26T21:22:38.061Z,6.43
2019-05-26T21:25:07.371Z,4.67
2019-05-26T21:27:35.773Z,5.33
2019-05-26T21:30:06.630Z,5.30
2019-05-26T21:32:35.138Z,5.50
2019-05-26T21:35:05.332Z,7.77
2019-05-26T21:37:33.832Z,5.07
2019-05-26T21:40:02.433Z,5.40
2019-05-26T21:42:31.001Z,5.57
2019-05-26T21:44:59.445Z,5.40
2019-05-26T21:47:28.179Z,5.83
2019-05-26T21:49:56.684Z,8.50
2019-05-26T21:52:25.128Z,13.40
2019-05-26T21:54:53.639Z,7.23
2019-05-26T21:57:22.074Z,8.27
2019-05-26T21:59:50.555Z,8.70
2019-05-26T22:02:19.042Z,8.53
2019-05-26T22:04:47.515Z,6.20
2019-05-26T22:07:16.034Z,7.27
2019-05-26T22:09:44.506Z,6.40
2019-05-26T22:12:13.045Z,7.23
2019-05-26T22:14:41.697Z,6.07
2019-05-26T22:17:10.303Z,6.97
2019-05-26T22:19:38.746Z,7.77
2019-05-26T22:22:07.274Z,7.40
2019-05-26T22:24:35.760Z,7.43
2019-05-26T22:27:04.282Z,7.50
2019-05-26T22:29:32.725Z,7.10
2019-05-26T22:32:01.166Z,7.73
2019-05-26T22:34:29.652Z,6.70
2019-05-26T22:36:58.097Z,7.07
2019-05-26T22:39:26.642Z,7.67
2019-05-26T22:41:55.194Z,7.87
2019-05-26T22:44:23.599Z,10.27
2019-05-26T22:46:52.150Z,8.27
2019-05-26T22:49:20.562Z,7.10
2019-05-26T22:51:49.126Z,7.73
2019-05-26T22:54:17.613Z,7.70
2019-05-26T22:56:46.060Z,9.67
2019-05-26T22:59:14.617Z,10.30
2019-05-26T23:01:43.247Z,8.10
2019-05-26T23:04:11.667Z,8.73
2019-05-26T23:06:40.206Z,8.90
2019-05-26T23:09:08.656Z,8.90
2019-05-26T23:11:37.089Z,7.70
2019-05-26T23:14:05.572Z,8.23
2019-05-26T23:16:34.012Z,10.87
2019-05-26T23:19:16.433Z,7.37
2019-05-26T23:21:32.841Z,7.97
2019-05-26T23:24:01.395Z,7.60
2019-05-26T23:26:29.801Z,8.80
2019-05-26T23:28:58.339Z,8.20
2019-05-26T23:31:26.827Z,9.00
2019-05-26T23:33:55.320Z,9.53
2019-05-26T23:36:23.783Z,7.50
2019-05-26T23:38:52.301Z,8.37
2019-05-26T23:41:20.742Z,9.53
2019-05-26T23:43:49.237Z,9.13
2019-05-26T23:46:17.651Z,8.90
2019-05-26T23:48:46.272Z,9.23
2019-05-26T23:51:14.764Z,7.97
2019-05-26T23:53:43.221Z,12.67
2019-05-26T23:56:11.713Z,9.27
2019-05-26T23:58:40.184Z,9.60
